createdAt,value
2023-01-31T00:02:35.102Z,101894.94
2023-01-31T00:07:36.698Z,101903.28
2023-01-31T00:12:38.429Z,101906.03
2023-01-31T00:17:40.246Z,101905.38
2023-01-31T00:22:41.951Z,101907.53
2023-01-31T00:27:43.548Z,101913.69
2023-01-31T00:32:46.410Z,101901.63
2023-01-31T00:37:48.143Z,101901.81
2023-01-31T00:42:49.874Z,101898.63
2023-01-31T00:47:51.470Z,101895.50
2023-01-31T00:52:53.013Z,101883.19
2023-01-31T00:57:54.576Z,101893.97
2023-01-31T01:02:56.320Z,101893.88
2023-01-31T01:07:58.066Z,101892.47
2023-01-31T01:12:59.666Z,101900.34
2023-01-31T01:18:01.243Z,101908.53
2023-01-31T01:23:03.272Z,101906.00
2023-01-31T01:28:05.744Z,101905.09
2023-01-31T01:33:07.327Z,101900.66
2023-01-31T01:38:08.915Z,101904.47
2023-01-31T01:43:11.579Z,101909.41
2023-01-31T01:48:17.560Z,101899.84
2023-01-31T01:53:22.656Z,101912.28
2023-01-31T01:58:32.894Z,101895.06
2023-01-31T02:03:35.682Z,101891.69
2023-01-31T02:08:42.134Z,101880.00
2023-01-31T02:13:47.458Z,101882.72
2023-01-31T02:18:49.498Z,101879.16
2023-01-31T02:24:37.733Z,101895.22
2023-01-31T02:29:51.508Z,101893.72
2023-01-31T02:34:56.055Z,101892.31
2023-01-31T02:40:22.873Z,101879.44
2023-01-31T02:45:46.035Z,101874.16
2023-01-31T02:51:17.265Z,101871.81
2023-01-31T02:56:30.628Z,101873.63
2023-01-31T03:01:43.631Z,101886.44
2023-01-31T03:07:08.638Z,101890.81
2023-01-31T03:12:33.845Z,101894.38
2023-01-31T03:17:47.683Z,101888.00
2023-01-31T03:22:59.301Z,101884.69
2023-01-31T03:28:05.909Z,101887.88
2023-01-31T03:33:34.061Z,101881.97
2023-01-31T03:38:43.077Z,101872.75
2023-01-31T03:44:08.511Z,101879.41
2023-01-31T03:49:14.040Z,101870.31
2023-01-31T03:54:22.813Z,101873.19
2023-01-31T03:59:32.534Z,101873.59
2023-01-31T04:04:42.600Z,101867.19
2023-01-31T04:09:45.029Z,101867.53
2023-01-31T04:14:46.887Z,101863.94
2023-01-31T04:19:48.444Z,101857.63
2023-01-31T04:24:50.176Z,101845.88
2023-01-31T04:29:51.721Z,101841.75
2023-01-31T04:34:53.370Z,101850.28
2023-01-31T04:39:54.971Z,101838.59
2023-01-31T04:44:56.493Z,101838.28
2023-01-31T04:49:58.039Z,101835.50
2023-01-31T04:54:59.631Z,101834.88
2023-01-31T05:00:01.273Z,101826.69
2023-01-31T05:05:04.629Z,101808.97
2023-01-31T05:10:07.628Z,101814.78
2023-01-31T05:15:09.900Z,101822.75
2023-01-31T05:20:11.924Z,101816.00
2023-01-31T05:25:16.006Z,101814.66
2023-01-31T05:30:17.908Z,101814.69
2023-01-31T05:35:19.937Z,101811.03
2023-01-31T05:40:22.668Z,101806.94
2023-01-31T05:45:24.364Z,101808.28
2023-01-31T05:50:26.930Z,101816.19
2023-01-31T05:55:28.959Z,101822.16
2023-01-31T06:00:31.176Z,101823.69
2023-01-31T06:05:33.243Z,101820.38
2023-01-31T06:10:35.223Z,101819.41
2023-01-31T06:15:36.974Z,101816.09
2023-01-31T06:20:38.923Z,101807.56
2023-01-31T06:25:40.627Z,101809.25
2023-01-31T06:30:42.248Z,101800.38
2023-01-31T06:35:43.984Z,101789.31
2023-01-31T06:40:45.762Z,101784.59
2023-01-31T06:45:47.704Z,101779.75
2023-01-31T06:50:49.322Z,101771.78
2023-01-31T06:55:50.899Z,101776.63
2023-01-31T07:00:52.643Z,101790.22
2023-01-31T07:05:54.336Z,101802.50
2023-01-31T07:10:56.013Z,101810.75
2023-01-31T07:15:57.946Z,101805.59
2023-01-31T07:20:59.665Z,101804.63
2023-01-31T07:26:04.316Z,101809.34
2023-01-31T07:31:07.696Z,101797.41
2023-01-31T07:36:13.695Z,101814.53
2023-01-31T07:41:15.661Z,101821.03
2023-01-31T07:46:17.941Z,101824.34
2023-01-31T07:51:19.647Z,101792.56
2023-01-31T07:56:22.581Z,101790.75
2023-01-31T08:01:26.417Z,101785.31
2023-01-31T08:06:30.647Z,101763.19
2023-01-31T08:11:32.942Z,101767.78
2023-01-31T08:16:34.653Z,101762.94
2023-01-31T08:21:36.315Z,101784.78
2023-01-31T08:26:38.058Z,101785.44
2023-01-31T08:31:41.054Z,101785.69
2023-01-31T08:36:43.592Z,101779.53
2023-01-31T08:41:45.328Z,101771.72
2023-01-31T08:46:47.062Z,101761.88
2023-01-31T08:51:48.743Z,101762.31
2023-01-31T08:56:50.478Z,101769.22
2023-01-31T09:01:52.152Z,101773.19
2023-01-31T09:06:53.801Z,101772.50
2023-01-31T09:11:55.365Z,101765.09
2023-01-31T09:16:57.195Z,101758.53
2023-01-31T09:21:59.104Z,101749.16
2023-01-31T09:27:00.712Z,101751.78
2023-01-31T09:32:02.332Z,101729.53
2023-01-31T09:37:04.067Z,101742.06
2023-01-31T09:42:18.424Z,101731.91
2023-01-31T09:47:26.431Z,101726.69
2023-01-31T09:52:28.555Z,101735.75
2023-01-31T09:57:38.884Z,101723.97
2023-01-31T10:03:07.449Z,101712.56
2023-01-31T10:08:15.083Z,101700.91
2023-01-31T10:13:23.700Z,101716.53
2023-01-31T10:18:30.937Z,101706.50
2023-01-31T10:23:45.188Z,101706.81
2023-01-31T10:29:00.202Z,101682.34
2023-01-31T10:34:26.618Z,101682.75
2023-01-31T10:39:33.935Z,101677.13
2023-01-31T10:44:49.908Z,101673.47
2023-01-31T10:49:51.606Z,101663.44
2023-01-31T10:55:01.569Z,101653.34
2023-01-31T11:00:04.714Z,101645.44
2023-01-31T11:05:06.879Z,101633.66
2023-01-31T11:10:30.068Z,101619.78
2023-01-31T11:15:40.782Z,101614.56
2023-01-31T11:20:47.640Z,101588.19
2023-01-31T11:25:53.962Z,101579.31
2023-01-31T11:30:55.992Z,101561.16
2023-01-31T11:35:57.565Z,101561.16
2023-01-31T11:40:59.328Z,101560.09
2023-01-31T11:46:03.256Z,101556.03
2023-01-31T11:51:05.386Z,101545.78
2023-01-31T11:56:26.842Z,101534.00
2023-01-31T12:01:28.969Z,101526.91
2023-01-31T12:06:39.212Z,101516.50
2023-01-31T12:11:50.966Z,101510.50
2023-01-31T12:16:56.736Z,101520.88
2023-01-31T12:22:13.691Z,101502.38
2023-01-31T12:27:34.032Z,101499.22
2023-01-31T12:33:03.896Z,101500.78
2023-01-31T12:38:27.335Z,101505.72
2023-01-31T12:43:50.837Z,101511.63
2023-01-31T12:48:55.786Z,101516.41
2023-01-31T12:54:35.723Z,101503.00
2023-01-31T13:00:23.538Z,101484.56
2023-01-31T13:05:32.370Z,101485.19
2023-01-31T13:10:39.584Z,101484.41
2023-01-31T13:15:49.467Z,101464.16
2023-01-31T13:21:00.945Z,101478.78
2023-01-31T13:26:10.020Z,101477.91
2023-01-31T13:31:26.244Z,101478.84
2023-01-31T13:36:43.234Z,101469.00
2023-01-31T13:41:45.095Z,101486.13
2023-01-31T13:47:15.269Z,101485.22
2023-01-31T13:52:43.587Z,101482.88
2023-01-31T13:58:16.345Z,101481.03
2023-01-31T14:03:20.580Z,101489.03
2023-01-31T14:08:46.253Z,101483.09
2023-01-31T14:13:49.437Z,101478.81
2023-01-31T14:18:51.025Z,101485.09
2023-01-31T14:23:52.767Z,101478.34
2023-01-31T14:28:54.501Z,101494.69
2023-01-31T14:33:57.005Z,101475.69
2023-01-31T14:39:20.751Z,101491.28
2023-01-31T14:44:40.497Z,101480.81
2023-01-31T14:50:00.928Z,101484.38
2023-01-31T14:55:22.160Z,101478.72
2023-01-31T15:00:31.801Z,101483.72
2023-01-31T15:05:36.296Z,101480.59
2023-01-31T15:11:11.454Z,101478.19
2023-01-31T15:16:36.384Z,101483.88
2023-01-31T15:21:45.556Z,101501.03
2023-01-31T15:26:49.493Z,101490.03
2023-01-31T15:32:00.728Z,101495.50
2023-01-31T15:37:05.769Z,101497.84
2023-01-31T15:42:43.033Z,101514.16
2023-01-31T15:48:11.520Z,101534.34
2023-01-31T15:53:17.901Z,101534.69
2023-01-31T15:58:25.444Z,101524.97
2023-01-31T16:03:33.237Z,101525.38
2023-01-31T16:08:37.429Z,101528.13
2023-01-31T16:13:41.405Z,101522.34
2023-01-31T16:18:55.226Z,101530.06
2023-01-31T16:24:18.044Z,101530.31
2023-01-31T16:29:22.299Z,101533.78
2023-01-31T16:34:26.485Z,101537.59
2023-01-31T16:39:40.715Z,101540.19
2023-01-31T16:44:45.823Z,101548.16
2023-01-31T16:49:47.605Z,101555.69
2023-01-31T16:54:51.654Z,101558.03
2023-01-31T16:59:54.125Z,101567.75
2023-01-31T17:04:59.489Z,101576.31
2023-01-31T17:10:05.626Z,101587.91
2023-01-31T17:15:15.531Z,101582.06
2023-01-31T17:20:19.452Z,101570.00
2023-01-31T17:25:23.843Z,101588.34
2023-01-31T17:30:25.497Z,101577.25
2023-01-31T17:35:31.949Z,101592.41
2023-01-31T17:40:35.168Z,101585.84
2023-01-31T17:45:36.853Z,101594.38
2023-01-31T17:50:38.511Z,101581.06
2023-01-31T17:55:40.838Z,101582.28
2023-01-31T18:00:42.540Z,101582.81
2023-01-31T18:05:45.171Z,101585.63
2023-01-31T18:10:47.067Z,101567.22
2023-01-31T18:15:48.777Z,101550.06
2023-01-31T18:20:50.646Z,101549.31
2023-01-31T18:25:52.469Z,101559.50
2023-01-31T18:30:54.174Z,101557.59
2023-01-31T18:35:57.901Z,101561.16
2023-01-31T18:40:59.643Z,101539.50
2023-01-31T18:46:06.053Z,101546.00
2023-01-31T18:51:11.301Z,101538.59
2023-01-31T18:56:18.612Z,101544.31
2023-01-31T19:01:25.844Z,101539.06
2023-01-31T19:06:29.908Z,101537.13
2023-01-31T19:11:31.890Z,101547.56
2023-01-31T19:16:38.850Z,101551.59
2023-01-31T19:21:41.515Z,101549.97
2023-01-31T19:26:43.358Z,101548.69
2023-01-31T19:31:45.138Z,101565.31
2023-01-31T19:36:46.948Z,101532.63
2023-01-31T19:41:51.487Z,101538.97
2023-01-31T19:46:53.149Z,101553.00
2023-01-31T19:51:54.815Z,101542.16
2023-01-31T19:56:56.374Z,101548.50
2023-01-31T20:01:58.387Z,101550.19
2023-01-31T20:07:00.101Z,101545.94
2023-01-31T20:12:01.839Z,101545.53
2023-01-31T20:17:03.552Z,101554.31
2023-01-31T20:22:05.405Z,101549.06
2023-01-31T20:27:07.094Z,101558.91
2023-01-31T20:32:08.823Z,101560.50
2023-01-31T20:37:11.357Z,101559.69
2023-01-31T20:42:13.142Z,101561.78
2023-01-31T20:47:14.908Z,101564.03
2023-01-31T20:52:16.746Z,101567.59
2023-01-31T20:57:19.413Z,101576.16
2023-01-31T21:02:20.984Z,101578.75
2023-01-31T21:07:22.577Z,101584.97
2023-01-31T21:12:24.244Z,101579.56
2023-01-31T21:17:39.287Z,101579.97
2023-01-31T21:22:42.072Z,101569.81
2023-01-31T21:27:43.689Z,101565.03
2023-01-31T21:32:45.456Z,101554.84
2023-01-31T21:37:50.094Z,101552.25
2023-01-31T21:42:53.526Z,101547.84
2023-01-31T21:47:55.662Z,101539.69
2023-01-31T21:52:57.327Z,101534.69
2023-01-31T21:57:59.059Z,101531.47
2023-01-31T22:03:00.757Z,101534.47
2023-01-31T22:08:02.435Z,101540.19
2023-01-31T22:13:04.003Z,101527.63
2023-01-31T22:18:05.645Z,101518.84
2023-01-31T22:23:07.402Z,101512.97
2023-01-31T22:28:09.102Z,101505.53
2023-01-31T22:33:10.770Z,101493.00
2023-01-31T22:38:12.364Z,101494.81
2023-01-31T22:43:17.773Z,101495.44
2023-01-31T22:48:20.516Z,101508.22
2023-01-31T22:53:23.472Z,101485.97
2023-01-31T22:58:25.148Z,101484.94
2023-01-31T23:03:26.937Z,101489.03
2023-01-31T23:08:28.586Z,101489.88
2023-01-31T23:13:30.204Z,101473.09
2023-01-31T23:18:32.395Z,101479.34
2023-01-31T23:23:34.156Z,101474.72
2023-01-31T23:28:35.874Z,101473.75
2023-01-31T23:33:37.767Z,101465.84
2023-01-31T23:38:39.438Z,101459.94
2023-01-31T23:43:41.162Z,101462.63
2023-01-31T23:48:42.788Z,101468.38
2023-01-31T23:53:44.694Z,101468.16
2023-01-31T23:58:46.305Z,101468.66
